Forside
METAR-TAF:

METAR-TAF

Lufthavne :

Nordholz, Tyskland

Breddekreds: 53-46N, længdekreds: 008-40E, højde: 23 m

Aktuelle vejr

Denne rapport blev lavet for 43 minutter siden, kl. 02:20 UTC
Vind 16 kt fra nordvest
Temperatur 11°C
Fugtighed 71%
Tryk 1027 hPa

METAR: ETMN 250220Z AUTO 32016KT //// // ////// 11/06 Q1027 ///

Tid: 05:03 (03:03 UTC)


TAF: fraværende

Vejrobservationer og prognoser fra mere end 4000 lufthavne (METAR og TAF).

De gule og røde prikker repræsenterer de meteorologiske stationer.

Flyt musen over at se navnet på stationen.

Så klik over at se vejr observationer og prognoser.

At skifte det kort: Klik på de grønne knapper med et sort kors for at zoome ind; på den grønne knap med en bindestreg for at zoome ud; eller på de grønne pile for tilstødende kort.


METAR-TAF: